Time;durP1;ratioP1;P1;durP2;ratioP2;P2;SDS_P1;SDS_P2;PMS_P1;PMS_P2;Temp;Humidity;BMP_temperature;BMP_pressure;BME280_temperature;BME280_humidity;BME280_pressure;Samples;Min_cycle;Max_cycle;Signal;HPM_P1;HPM_P2
2024/01/10 00:01:57;;;;;;;;;67.25;53.00;;;;;-7.50;100.00;100540.88;5865420;29;96809;-54
2024/01/10 00:05:00;;;;;;;;;70.60;54.60;;;;;-7.54;100.00;100538.47;5868699;29;97065;-54
2024/01/10 00:08:04;;;;;;;;;69.50;52.00;;;;;-7.62;100.00;100544.03;5868379;29;96606;-54
2024/01/10 00:11:07;;;;;;;;;65.67;51.33;;;;;-7.76;100.00;100541.16;5869879;29;96686;-54
2024/01/10 00:14:12;;;;;;;;;65.80;50.00;;;;;-8.01;100.00;100530.91;5870556;29;96405;-54
2024/01/10 00:17:15;;;;;;;;;64.00;50.00;;;;;-8.02;100.00;100550.16;5867596;29;96438;-54
2024/01/10 00:20:18;;;;;;;;;66.75;50.25;;;;;-8.04;100.00;100541.50;5871359;29;96535;-54
2024/01/10 00:23:22;;;;;;;;;67.00;51.60;;;;;-8.08;100.00;100534.72;5869978;29;96565;-55
2024/01/10 00:26:25;;;;;;;;;65.20;50.00;;;;;-8.13;100.00;100538.44;5869573;29;96893;-54
2024/01/10 00:29:29;;;;;;;;;65.20;51.80;;;;;-8.19;100.00;100539.53;5870097;29;96537;-54
2024/01/10 00:32:32;;;;;;;;;67.00;51.00;;;;;-8.21;100.00;100540.53;5868908;29;96455;-54
2024/01/10 00:35:36;;;;;;;;;68.00;52.50;;;;;-8.24;100.00;100538.88;5870063;29;96354;-54
2024/01/10 00:38:39;;;;;;;;;66.50;50.50;;;;;-8.21;100.00;100532.66;5868040;29;96883;-54
2024/01/10 00:41:42;;;;;;;;;70.00;53.00;;;;;-8.20;100.00;100534.34;5867844;29;96468;-54
2024/01/10 00:44:47;;;;;;;;;67.60;53.00;;;;;-8.23;100.00;100532.72;5863465;29;96376;-54
2024/01/10 00:47:50;;;;;;;;;70.20;52.60;;;;;-8.23;100.00;100540.56;5870279;29;96345;-54
2024/01/10 00:50:53;;;;;;;;;65.80;51.00;;;;;-8.21;100.00;100532.66;5870199;29;96475;-55
2024/01/10 00:53:56;;;;;;;;;66.00;52.00;;;;;-8.20;100.00;100534.34;5861282;29;96413;-54
2024/01/10 00:56:59;;;;;;;;;67.40;51.60;;;;;-8.21;100.00;100544.00;5848369;29;96693;-54
2024/01/10 01:00:05;;;;;;;;;68.00;51.00;;;;;-8.28;100.00;100539.91;5846418;29;96415;-54
2024/01/10 01:03:08;;;;;;;;;67.75;51.50;;;;;-8.52;100.00;100507.81;5846453;29;96872;-54
2024/01/10 01:06:11;;;;;;;;;72.00;53.00;;;;;-8.38;100.00;100542.09;5845834;29;96660;-55
2024/01/10 01:09:15;;;;;;;;;68.00;51.50;;;;;-8.41;100.00;100544.00;5862358;29;97114;-54
2024/01/10 01:12:18;;;;;;;;;67.00;52.50;;;;;-8.45;100.00;100547.63;5865733;29;96464;-54
2024/01/10 01:15:22;;;;;;;;;68.40;52.00;;;;;-8.47;100.00;100546.84;5869514;29;96534;-54
2024/01/10 01:18:25;;;;;;;;;75.25;59.00;;;;;-8.51;100.00;100546.13;5868487;29;96689;-54
2024/01/10 01:21:29;;;;;;;;;73.00;57.75;;;;;-8.67;100.00;100518.88;5868802;29;97001;-54
2024/01/10 01:24:32;;;;;;;;;71.75;57.00;;;;;-8.55;100.00;100544.50;5869132;29;96415;-54
2024/01/10 01:27:35;;;;;;;;;71.25;54.75;;;;;-8.57;100.00;100546.38;5850182;29;96921;-54
2024/01/10 01:30:40;;;;;;;;;69.50;52.75;;;;;-8.55;100.00;100543.69;5857435;29;96460;-54
2024/01/10 01:33:43;;;;;;;;;67.80;51.80;;;;;-8.58;100.00;100541.19;5862454;29;96946;-54
2024/01/10 01:36:46;;;;;;;;;70.75;54.75;;;;;-8.57;100.00;100541.13;5861215;29;96427;-54
2024/01/10 01:39:49;;;;;;;;;71.60;56.40;;;;;-8.57;100.00;100528.06;5867658;29;96423;-54
2024/01/10 01:42:53;;;;;;;;;73.00;59.80;;;;;-8.58;100.00;100523.72;5867243;29;96783;-55
2024/01/10 01:45:58;;;;;;;;;73.00;58.50;;;;;-8.58;100.00;100518.50;5868060;29;96452;-53
2024/01/10 01:49:01;;;;;;;;;75.60;58.80;;;;;-8.57;100.00;100514.13;5868599;29;96400;-54
2024/01/10 01:52:06;;;;;;;;;73.40;57.80;;;;;-8.55;100.00;100513.13;5867562;29;96576;-54
2024/01/10 01:55:11;;;;;;;;;75.00;58.75;;;;;-8.55;100.00;100515.75;5867270;29;96722;-54
2024/01/10 01:58:15;;;;;;;;;73.00;55.50;;;;;-8.58;100.00;100515.03;5866547;29;96642;-54
2024/01/10 02:01:21;;;;;;;;;76.20;60.40;;;;;-8.58;100.00;100515.88;5865781;29;96744;-54
2024/01/10 02:04:24;;;;;;;;;74.60;57.60;;;;;-8.61;100.00;100513.41;5913661;23;96653;-54
2024/01/10 02:07:28;;;;;;;;;72.75;58.75;;;;;-8.58;100.00;100517.66;5911131;29;97052;-54
2024/01/10 02:10:31;;;;;;;;;73.00;61.00;;;;;-8.58;100.00;100522.88;5912655;29;96399;-54
2024/01/10 02:13:34;;;;;;;;;72.00;54.40;;;;;-8.60;100.00;100522.94;5888907;29;98466;-54
2024/01/10 02:16:39;;;;;;;;;75.40;63.00;;;;;-8.58;100.00;100522.88;5889369;29;96373;-54
2024/01/10 02:19:42;;;;;;;;;77.00;67.00;;;;;-8.62;100.00;100513.47;5905937;29;97106;-54
2024/01/10 02:22:45;;;;;;;;;78.00;66.20;;;;;-8.66;100.00;100515.34;5899609;29;97634;-54
2024/01/10 02:25:50;;;;;;;;;77.00;63.80;;;;;-8.60;100.00;100516.88;5911132;29;97570;-54
2024/01/10 02:28:54;;;;;;;;;78.00;67.00;;;;;-8.62;100.00;100513.47;5912044;29;96384;-54
2024/01/10 02:31:57;;;;;;;;;80.00;70.60;;;;;-8.63;100.00;100509.13;5912302;29;96635;-54
2024/01/10 02:35:00;;;;;;;;;75.20;63.40;;;;;-8.65;100.00;100506.59;5912386;29;96475;-54
2024/01/10 02:38:04;;;;;;;;;77.60;65.60;;;;;-8.62;100.00;100501.25;5904580;29;97071;-54
2024/01/10 03:53:34;;;;;;;;;97.60;83.80;;;;;-9.08;100.00;100465.63;5860843;29;97210;-57
2024/01/10 03:56:37;;;;;;;;;91.40;82.40;;;;;-9.05;100.00;100459.44;5878480;29;97643;-57
2024/01/10 03:59:40;;;;;;;;;80.00;72.80;;;;;-9.11;100.00;100462.28;5860338;29;97475;-57
2024/01/10 04:02:43;;;;;;;;;89.50;76.50;;;;;-9.23;100.00;100454.00;5857907;29;96671;-57
2024/01/10 04:05:46;;;;;;;;;87.00;75.50;;;;;-9.33;99.27;100446.59;5859894;29;96775;-57
2024/01/10 04:08:51;;;;;;;;;92.60;78.00;;;;;-9.40;99.94;100446.00;5843587;29;98475;-57
2024/01/10 04:11:54;;;;;;;;;90.75;77.00;;;;;-9.41;99.88;100449.50;5844150;29;96365;-57
2024/01/10 04:14:57;;;;;;;;;85.20;74.20;;;;;-9.44;99.56;100441.81;5842093;29;98824;-57
2024/01/10 04:18:00;;;;;;;;;88.80;79.40;;;;;-9.42;100.00;100447.78;5824336;29;96447;-57
2024/01/10 04:21:04;;;;;;;;;86.80;74.60;;;;;-9.50;100.00;100433.34;5826600;29;97016;-57
2024/01/10 04:24:08;;;;;;;;;86.20;71.80;;;;;-9.41;100.00;100446.03;5842890;29;96429;-57
2024/01/10 04:27:11;;;;;;;;;93.00;75.75;;;;;-9.40;100.00;100445.13;5855230;29;97982;-57
2024/01/10 04:30:15;;;;;;;;;87.80;73.80;;;;;-9.37;100.00;100451.09;5840327;29;96481;-57
2024/01/10 04:33:18;;;;;;;;;87.00;77.00;;;;;-9.36;100.00;100449.31;5841154;29;96599;-57
2024/01/10 04:36:21;;;;;;;;;88.75;77.00;;;;;-9.37;100.00;100450.22;5843338;29;96357;-57
2024/01/10 04:39:26;;;;;;;;;85.50;73.50;;;;;-9.40;100.00;100448.59;5819257;29;97692;-57
2024/01/10 04:42:29;;;;;;;;;90.75;75.50;;;;;-9.45;100.00;100440.09;5832122;29;96548;-57
2024/01/10 04:45:32;;;;;;;;;94.50;80.50;;;;;-9.39;100.00;100452.91;5842569;29;97122;-57
2024/01/10 04:48:35;;;;;;;;;94.00;81.00;;;;;-9.37;100.00;100453.69;5835000;29;96720;-57
2024/01/10 04:51:39;;;;;;;;;89.33;77.67;;;;;-9.36;100.00;100458.00;5834097;29;96912;-57
2024/01/10 04:54:43;;;;;;;;;95.00;79.80;;;;;-9.33;100.00;100462.25;5832752;29;96351;-57
2024/01/10 04:57:46;;;;;;;;;89.40;78.60;;;;;-9.39;100.00;100433.78;5832207;29;96585;-57
2024/01/10 05:00:50;;;;;;;;;87.20;75.40;;;;;-9.21;100.00;100452.19;5837008;29;96412;-56
2024/01/10 05:03:53;;;;;;;;;84.60;73.60;;;;;-9.16;100.00;100452.03;5839335;29;96383;-55
2024/01/10 05:06:56;;;;;;;;;82.00;72.75;;;;;-9.09;100.00;100458.72;5840249;29;96636;-56
2024/01/10 05:10:00;;;;;;;;;91.00;79.00;;;;;-9.03;100.00;100458.47;5842553;29;96371;-56
2024/01/10 05:13:05;;;;;;;;;87.60;75.20;;;;;-8.98;100.00;100466.97;5840622;29;99027;-55
2024/01/10 05:16:08;;;;;;;;;87.50;73.00;;;;;-8.96;100.00;100473.00;5838158;29;96953;-55
2024/01/10 05:19:11;;;;;;;;;79.50;70.75;;;;;-9.04;100.00;100463.75;5833124;29;96390;-56
2024/01/10 05:22:14;;;;;;;;;87.80;73.20;;;;;-9.01;100.00;100467.09;5835896;29;97150;-56
2024/01/10 05:25:20;;;;;;;;;86.40;73.00;;;;;-9.05;100.00;100464.66;5838982;29;96547;-56
2024/01/10 05:28:24;;;;;;;;;84.80;73.00;;;;;-9.06;100.00;100463.81;5840213;29;96568;-55
2024/01/10 05:31:27;;;;;;;;;85.40;74.40;;;;;-9.08;100.00;100470.84;5819377;29;96607;-56
2024/01/10 05:34:30;;;;;;;;;84.25;73.00;;;;;-9.04;100.00;100469.81;5836701;29;96559;-56
2024/01/10 05:37:33;;;;;;;;;87.80;74.40;;;;;-9.04;100.00;100474.22;5832606;29;96619;-56
2024/01/10 05:40:38;;;;;;;;;79.00;68.60;;;;;-9.06;100.00;100473.41;5835404;29;97018;-56
2024/01/10 05:43:41;;;;;;;;;84.00;70.40;;;;;-9.10;100.00;100482.28;5823400;29;96999;-56
2024/01/10 05:46:45;;;;;;;;;81.60;70.00;;;;;-9.21;100.00;100461.78;5803708;30;97955;-56
2024/01/10 05:49:48;;;;;;;;;82.00;65.60;;;;;-9.19;100.00;100467.81;5834044;29;96554;-56
2024/01/10 05:52:51;;;;;;;;;79.80;69.20;;;;;-9.22;100.00;100470.53;5840507;29;96368;-55
2024/01/10 05:55:55;;;;;;;;;83.00;73.00;;;;;-9.21;100.00;100483.56;5840375;29;96937;-55
2024/01/10 05:58:59;;;;;;;;;136.67;116.00;;;;;-9.21;100.00;100472.25;5841763;29;96489;-56
2024/01/10 06:02:04;;;;;;;;;103.20;88.00;;;;;-9.13;100.00;100471.94;5835160;29;96548;-55
2024/01/10 06:05:09;;;;;;;;;90.67;79.67;;;;;-9.09;100.00;100474.41;5839269;29;96998;-56
2024/01/10 06:08:13;;;;;;;;;89.80;75.40;;;;;-9.06;100.00;100465.56;5839157;29;96721;-56
2024/01/10 06:11:19;;;;;;;;;84.80;73.00;;;;;-9.01;100.00;100474.94;5846488;29;96321;-57
2024/01/10 06:14:22;;;;;;;;;87.00;74.20;;;;;-8.99;100.00;100475.72;5836655;29;96606;-54
2024/01/10 06:17:25;;;;;;;;;85.00;72.80;;;;;-8.96;100.00;100472.13;5847723;29;97430;-55
2024/01/10 06:20:28;;;;;;;;;88.00;77.40;;;;;-8.97;100.00;100479.13;5844807;29;97304;-55
2024/01/10 06:23:32;;;;;;;;;90.75;75.75;;;;;-8.95;100.00;100487.78;5845269;29;96585;-54
2024/01/10 06:26:36;;;;;;;;;90.00;73.40;;;;;-8.95;100.00;100479.06;5840654;29;96352;-56
2024/01/10 06:29:39;;;;;;;;;90.80;76.80;;;;;-8.93;100.00;100485.94;5841277;29;96347;-55
2024/01/10 06:32:42;;;;;;;;;95.00;80.00;;;;;-8.89;100.00;100487.50;5858213;29;96532;-55
2024/01/10 06:35:46;;;;;;;;;87.00;76.50;;;;;-8.86;100.00;100489.16;5844160;29;96425;-55
2024/01/10 06:38:49;;;;;;;;;91.75;78.75;;;;;-8.81;100.00;100487.22;5842710;29;96391;-55
2024/01/10 06:41:54;;;;;;;;;98.00;81.75;;;;;-8.75;100.00;100483.50;5842019;29;96549;-55
2024/01/10 06:44:57;;;;;;;;;87.20;76.40;;;;;-8.78;100.00;100482.72;5843699;29;96397;-55
2024/01/10 06:48:00;;;;;;;;;81.00;71.25;;;;;-8.82;100.00;100483.75;5842899;29;96630;-54
2024/01/10 06:51:04;;;;;;;;;83.00;71.50;;;;;-8.90;100.00;100475.38;5842755;29;96385;-55
2024/01/10 06:54:07;;;;;;;;;85.50;73.00;;;;;-8.90;100.00;100472.75;5842990;29;96386;-55
2024/01/10 06:57:11;;;;;;;;;86.33;75.00;;;;;-8.85;100.00;100464.72;5831488;29;96556;-54
2024/01/10 07:00:17;;;;;;;;;84.75;74.75;;;;;-8.81;100.00;100469.78;5834477;29;96579;-55
2024/01/10 07:03:20;;;;;;;;;88.80;77.00;;;;;-8.71;100.00;100470.25;5834901;29;96352;-55
2024/01/10 07:06:24;;;;;;;;;90.00;77.60;;;;;-8.66;100.00;100450.00;5835772;29;96450;-54
2024/01/10 07:09:27;;;;;;;;;91.00;79.00;;;;;-8.48;100.00;100467.53;5839432;29;96639;-54
2024/01/10 07:12:31;;;;;;;;;89.60;78.60;;;;;-8.29;100.00;100461.53;5834241;29;96723;-55
2024/01/10 07:15:35;;;;;;;;;88.40;79.60;;;;;-8.12;100.00;100461.63;5841694;29;96510;-55
2024/01/10 07:18:38;;;;;;;;;99.00;86.60;;;;;-7.93;100.00;100462.53;5840145;29;96492;-55
2024/01/10 07:21:42;;;;;;;;;99.00;82.80;;;;;-7.69;100.00;100465.81;5843095;29;96281;-55
2024/01/10 07:24:46;;;;;;;;;104.60;90.40;;;;;-7.52;100.00;100464.13;5845253;29;96377;-55
2024/01/10 07:27:51;;;;;;;;;120.60;99.60;;;;;-7.32;100.00;100467.63;5844388;29;96410;-55
2024/01/10 07:30:54;;;;;;;;;115.50;96.25;;;;;-6.90;100.00;100465.63;5844241;29;96402;-55
2024/01/10 07:33:57;;;;;;;;;110.60;97.00;;;;;-5.80;100.00;100467.00;5841312;29;96520;-55
2024/01/10 07:37:00;;;;;;;;;120.80;101.20;;;;;-4.32;96.35;100458.78;5842968;29;96693;-55
2024/01/10 07:40:05;;;;;;;;;111.50;95.50;;;;;-2.87;86.68;100459.44;5843313;29;96499;-55
2024/01/10 07:43:11;;;;;;;;;123.00;99.60;;;;;-1.82;80.04;100455.94;5861862;29;96879;-55
2024/01/10 07:46:14;;;;;;;;;121.80;101.00;;;;;-0.97;73.96;100463.97;5843907;29;96417;-56
2024/01/10 07:49:18;;;;;;;;;117.40;100.00;;;;;-0.40;71.14;100467.81;5842037;29;96336;-55
2024/01/10 07:52:21;;;;;;;;;117.00;100.80;;;;;0.11;69.05;100465.69;5843377;29;96407;-56
2024/01/10 07:55:29;;;;;;;;;129.00;107.40;;;;;0.87;67.45;100457.94;5844902;29;96288;-55
2024/01/10 07:58:33;;;;;;;;;111.80;103.00;;;;;1.76;62.19;100457.69;5845043;29;96542;-56
2024/01/10 08:01:37;;;;;;;;;119.60;100.00;;;;;3.06;58.03;100450.88;5844418;29;96150;-56
2024/01/10 08:04:40;;;;;;;;;125.50;105.75;;;;;4.33;54.37;100459.66;5844969;29;96997;-56
2024/01/10 08:07:44;;;;;;;;;121.80;105.20;;;;;5.54;50.54;100452.38;5845286;29;96363;-56
2024/01/10 08:10:47;;;;;;;;;113.00;97.75;;;;;6.85;48.37;100450.56;5845549;29;96382;-57
2024/01/10 08:13:51;;;;;;;;;113.80;97.40;;;;;8.11;44.69;100453.94;5845152;29;96360;-56
2024/01/10 08:16:57;;;;;;;;;110.50;97.00;;;;;9.12;40.54;100439.00;5843275;29;96348;-56
2024/01/10 08:20:03;;;;;;;;;119.20;104.20;;;;;10.30;39.18;100445.00;5842018;29;96384;-57
2024/01/10 08:23:08;;;;;;;;;112.00;100.00;;;;;11.35;38.13;100441.13;5842052;29;96426;-56
2024/01/10 08:26:12;;;;;;;;;119.20;101.60;;;;;12.37;36.96;100448.03;5845248;29;96498;-57
2024/01/10 08:29:17;;;;;;;;;127.80;104.00;;;;;13.22;34.30;100438.84;5845398;29;96518;-57
2024/01/10 08:32:21;;;;;;;;;131.75;111.50;;;;;14.21;33.78;100446.22;5864350;29;96548;-57
2024/01/10 08:35:25;;;;;;;;;121.80;103.00;;;;;14.75;31.56;100434.34;5863686;29;96776;-58
2024/01/10 08:38:31;;;;;;;;;117.00;103.50;;;;;15.31;32.17;100444.63;5866410;29;97004;-59
2024/01/10 08:41:36;;;;;;;;;127.40;108.40;;;;;15.77;30.25;100439.88;5867131;29;96419;-58
2024/01/10 08:44:41;;;;;;;;;131.40;107.40;;;;;16.31;29.58;100441.19;5867100;29;97177;-57
2024/01/10 08:55:13;;;;;;;;;129.50;109.00;;;;;17.92;28.18;100419.94;6430183;24;98440;-57
2024/01/10 08:58:17;;;;;;;;;131.40;113.60;;;;;18.46;27.39;100427.06;5933021;29;98450;-58
2024/01/10 09:01:22;;;;;;;;;127.00;108.50;;;;;19.18;26.93;100411.25;5924159;29;96680;-58
2024/01/10 09:04:26;;;;;;;;;127.40;111.00;;;;;19.76;25.86;100428.34;5930984;29;96569;-58
2024/01/10 09:11:07;;;;;;;;;127.00;109.00;;;;;21.14;25.03;100415.88;6149230;23;99032;-58
2024/01/10 09:14:10;;;;;;;;;131.60;113.00;;;;;21.53;24.74;100408.41;5926684;29;96466;-57
2024/01/10 09:17:15;;;;;;;;;134.40;115.00;;;;;21.92;23.82;100414.63;5928031;29;96363;-59
2024/01/10 09:20:20;;;;;;;;;129.20;111.20;;;;;22.13;23.44;100404.69;5926625;29;96984;-60
2024/01/10 09:23:24;;;;;;;;;122.60;112.60;;;;;22.21;22.99;100410.53;5915430;29;97062;-59
2024/01/10 09:26:27;;;;;;;;;123.00;109.00;;;;;22.61;23.79;100409.22;5910172;29;98078;-59
2024/01/10 09:29:31;;;;;;;;;131.00;112.60;;;;;23.05;24.07;100401.56;5914260;29;96392;-59
2024/01/10 09:32:36;;;;;;;;;129.60;115.00;;;;;23.58;23.46;100381.16;5916197;29;96994;-59
2024/01/10 09:35:39;;;;;;;;;133.50;114.00;;;;;24.23;22.72;100394.25;5906904;29;96344;-59
2024/01/10 09:38:42;;;;;;;;;130.40;113.40;;;;;24.68;22.73;100392.59;5906850;29;96381;-59
2024/01/10 09:41:50;;;;;;;;;129.40;109.00;;;;;25.21;22.47;100378.13;5906967;29;96400;-59
2024/01/10 09:44:53;;;;;;;;;124.20;111.00;;;;;25.54;22.00;100359.19;5905085;29;97281;-59
2024/01/10 09:47:58;;;;;;;;;129.60;112.80;;;;;25.74;21.31;100362.69;5906854;29;96541;-59
2024/01/10 09:51:01;;;;;;;;;125.80;111.40;;;;;25.87;20.57;100358.44;5906442;29;96742;-59
2024/01/10 09:54:04;;;;;;;;;129.00;112.00;;;;;25.91;21.31;100337.41;5905352;29;96480;-59
2024/01/10 13:10:06;;;;;;;;;99.00;88.80;;;;;12.20;44.93;100114.06;6044304;24;98703;-87
2024/01/10 13:20:11;;;;;;;;;96.00;85.00;;;;;11.50;49.26;100152.09;5911371;29;96298;-85
2024/01/10 13:23:18;;;;;;;;;91.00;79.00;;;;;11.31;50.14;100202.22;5915392;29;96770;-90
2024/01/10 13:26:26;;;;;;;;;79.60;71.40;;;;;11.18;51.69;100210.22;5932423;29;97038;-87
2024/01/10 13:29:30;;;;;;;;;83.50;73.00;;;;;11.07;51.99;100218.81;5915432;29;96401;-87
2024/01/10 13:32:34;;;;;;;;;87.25;79.00;;;;;10.83;53.04;100222.72;5917751;29;97022;-86
2024/01/10 13:35:52;;;;;;;;;83.60;74.60;;;;;10.53;53.87;100231.91;5914955;29;96968;-86
2024/01/10 13:38:57;;;;;;;;;79.00;69.00;;;;;9.09;55.13;100051.06;5918412;29;96945;-88
2024/01/10 13:45:35;;;;;;;;;74.75;63.00;;;;;9.09;55.09;100072.59;5933517;29;96969;-87
2024/01/10 13:48:49;;;;;;;;;78.40;66.00;;;;;9.75;55.60;100190.19;5919531;29;96345;-86
2024/01/10 13:51:57;;;;;;;;;78.00;67.40;;;;;9.50;55.68;100176.13;5912399;29;96426;-87
2024/01/10 13:55:05;;;;;;;;;72.25;60.75;;;;;9.56;56.67;100212.25;5904289;24;98033;-58
2024/01/10 13:58:10;;;;;;;;;76.00;62.80;;;;;9.40;57.69;100209.72;5911065;29;97450;-58
2024/01/10 14:01:14;;;;;;;;;75.00;63.00;;;;;9.10;57.79;100203.41;5901624;29;96677;-58
2024/01/10 14:04:17;;;;;;;;;74.80;64.20;;;;;8.92;58.45;100198.34;5913134;29;96342;-58
2024/01/10 14:07:20;;;;;;;;;76.00;64.50;;;;;8.72;58.67;100209.72;5902035;29;96946;-58
2024/01/10 14:10:23;;;;;;;;;75.40;62.40;;;;;8.44;59.68;100199.47;5913819;29;96422;-58
2024/01/10 14:13:28;;;;;;;;;76.60;62.20;;;;;8.24;60.47;100208.94;5906855;29;96998;-58
2024/01/10 14:16:31;;;;;;;;;76.50;66.00;;;;;7.94;61.74;100199.81;5906068;29;96848;-58
2024/01/10 14:19:35;;;;;;;;;72.00;57.00;;;;;7.87;62.03;100206.88;5900573;29;96860;-59
2024/01/10 14:22:38;;;;;;;;;75.80;63.00;;;;;7.77;62.86;100204.38;5917028;29;96359;-58
2024/01/10 14:25:41;;;;;;;;;72.00;58.50;;;;;7.62;63.25;100198.06;5925813;29;96362;-58
2024/01/10 14:28:45;;;;;;;;;76.00;63.25;;;;;7.25;65.24;100212.00;5916610;29;96972;-58
2024/01/10 14:31:49;;;;;;;;;80.00;66.40;;;;;6.88;67.08;100201.78;5922780;29;96331;-58
2024/01/10 14:35:12;;;;;;;;;77.60;63.60;;;;;6.67;68.66;100200.56;5943628;29;96988;-58
2024/01/10 14:38:15;;;;;;;;;79.00;71.00;;;;;6.45;69.74;100197.50;6680437;23;98968;-58
2024/01/10 14:41:19;;;;;;;;;79.80;68.80;;;;;6.07;70.83;100169.44;5925442;29;96594;-58
2024/01/10 14:44:23;;;;;;;;;80.00;69.60;;;;;5.89;73.43;100191.94;5929336;29;96290;-58
2024/01/10 14:47:26;;;;;;;;;84.00;69.60;;;;;5.51;75.38;100194.03;5927706;29;96322;-58
2024/01/10 14:50:30;;;;;;;;;79.00;73.00;;;;;5.17;77.07;100185.97;5922226;29;96307;-58
2024/01/10 14:53:34;;;;;;;;;81.40;75.60;;;;;4.87;77.78;100189.03;5923238;29;96396;-58
2024/01/10 14:56:39;;;;;;;;;84.20;75.00;;;;;4.59;79.04;100198.97;5928515;29;96354;-58
2024/01/10 14:59:46;;;;;;;;;83.50;72.50;;;;;4.33;79.85;100198.00;5921824;29;96740;-58
2024/01/10 15:02:51;;;;;;;;;82.60;74.40;;;;;4.07;81.01;100189.00;5904987;29;97021;-58
2024/01/10 15:05:54;;;;;;;;;86.80;75.00;;;;;3.81;81.70;100200.34;5934078;23;96391;-58
2024/01/10 15:08:58;;;;;;;;;85.60;77.40;;;;;3.55;83.68;100195.84;5920625;29;97353;-58
2024/01/10 15:12:07;;;;;;;;;88.60;74.60;;;;;3.28;84.85;100184.09;5916407;29;96478;-58
2024/01/10 15:15:13;;;;;;;;;89.40;77.00;;;;;3.18;85.93;100203.75;5913822;29;96361;-58
2024/01/10 15:18:16;;;;;;;;;89.00;77.33;;;;;3.01;86.68;100202.66;5913943;29;98441;-57
2024/01/10 15:21:20;;;;;;;;;91.67;81.00;;;;;2.83;87.72;100201.69;5915666;29;96828;-58
2024/01/10 15:24:23;;;;;;;;;98.00;83.00;;;;;2.69;89.03;100210.94;5928962;29;96516;-57
2024/01/10 15:27:27;;;;;;;;;96.60;83.00;;;;;2.57;89.63;100206.72;5917024;29;96434;-58
2024/01/10 15:30:34;;;;;;;;;111.00;91.00;;;;;2.44;90.98;100211.47;5915699;29;97014;-58
2024/01/10 15:33:49;;;;;;;;;116.60;101.20;;;;;2.34;92.89;100202.63;5905107;29;98855;-58
2024/01/10 15:36:53;;;;;;;;;117.00;101.80;;;;;2.27;93.29;100198.81;5909703;29;96517;-58
2024/01/10 15:39:56;;;;;;;;;115.00;101.00;;;;;2.17;93.64;100197.00;5911039;29;96515;-58
2024/01/10 15:42:59;;;;;;;;;116.00;105.00;;;;;2.06;94.02;100188.25;5911603;29;97120;-55
2024/01/10 15:46:04;;;;;;;;;127.00;108.20;;;;;1.97;94.99;100189.94;5909166;29;96373;-55
2024/01/10 15:49:08;;;;;;;;;138.60;114.00;;;;;1.92;95.31;100194.81;5897607;29;96373;-55
2024/01/10 15:52:11;;;;;;;;;128.00;109.40;;;;;1.85;96.50;100188.38;5910439;29;96350;-55
2024/01/10 15:55:15;;;;;;;;;133.60;110.80;;;;;1.73;96.85;100195.59;5899868;29;96367;-55
2024/01/10 15:58:18;;;;;;;;;133.80;112.00;;;;;1.65;97.63;100199.88;5911878;29;96393;-55
2024/01/10 16:01:23;;;;;;;;;136.50;117.00;;;;;1.58;97.25;100191.59;5895131;29;96586;-55
2024/01/10 16:04:26;;;;;;;;;135.00;116.33;;;;;1.45;98.20;100190.97;5909929;29;96739;-55
2024/01/10 16:07:31;;;;;;;;;139.40;116.40;;;;;1.34;99.69;100191.03;5905751;29;96813;-55
2024/01/10 16:10:34;;;;;;;;;134.20;118.20;;;;;1.27;100.00;100187.25;5888522;29;96324;-55
2024/01/10 16:13:37;;;;;;;;;138.40;118.20;;;;;1.17;100.00;100195.13;5906020;29;96496;-55
2024/01/10 16:16:42;;;;;;;;;135.60;117.80;;;;;1.08;100.00;100197.72;5921281;29;96285;-55
2024/01/10 16:19:45;;;;;;;;;131.75;111.75;;;;;1.02;100.00;100198.25;5903019;29;96620;-55
2024/01/10 16:22:48;;;;;;;;;131.80;115.20;;;;;0.91;100.00;100199.16;5899766;29;97657;-56
2024/01/10 16:25:51;;;;;;;;;138.20;116.00;;;;;0.72;100.00;100175.97;5899148;29;96523;-56
2024/01/10 16:28:54;;;;;;;;;141.00;117.00;;;;;0.75;100.00;100188.97;5907867;29;96388;-55
2024/01/10 16:31:59;;;;;;;;;133.00;115.00;;;;;0.68;100.00;100193.13;5891913;29;97035;-55
2024/01/10 16:35:03;;;;;;;;;143.20;119.60;;;;;0.53;100.00;100185.56;5890704;29;96561;-55
2024/01/10 16:38:06;;;;;;;;;130.50;113.00;;;;;0.47;100.00;100197.53;5892435;29;98619;-55
2024/01/10 16:41:09;;;;;;;;;131.25;112.25;;;;;0.33;100.00;100196.00;5898237;29;96510;-54
2024/01/10 16:44:13;;;;;;;;;138.00;114.00;;;;;0.23;100.00;100196.88;5904126;29;97297;-54
2024/01/10 16:47:17;;;;;;;;;132.00;113.00;;;;;0.13;100.00;100182.66;5906301;29;97214;-53
2024/01/10 16:50:21;;;;;;;;;133.80;113.80;;;;;0.03;100.00;100179.06;5907485;29;96241;-53
2024/01/10 16:53:25;;;;;;;;;132.00;113.00;;;;;-0.03;100.00;100178.59;5906265;29;96684;-54
2024/01/10 16:56:28;;;;;;;;;134.00;114.60;;;;;-0.07;100.00;100177.16;5904862;29;96740;-54
2024/01/10 16:59:32;;;;;;;;;143.25;120.00;;;;;-0.11;100.00;100180.19;5907039;29;96348;-55
2024/01/10 17:02:36;;;;;;;;;146.40;122.60;;;;;-0.16;100.00;100180.56;5903795;29;96882;-54
2024/01/10 17:05:41;;;;;;;;;140.75;119.00;;;;;-0.22;100.00;100173.06;5906663;29;97128;-54
2024/01/10 17:08:47;;;;;;;;;140.00;119.00;;;;;-0.32;100.00;100174.78;5909415;29;96699;-54
2024/01/10 17:11:50;;;;;;;;;144.20;124.80;;;;;-0.40;100.00;100166.59;5908568;29;96961;-54
2024/01/10 17:14:53;;;;;;;;;149.00;127.00;;;;;-0.41;100.00;100166.72;5905543;29;96547;-55
2024/01/10 17:17:58;;;;;;;;;147.60;127.20;;;;;-0.43;100.00;100170.31;5904630;29;96738;-55
2024/01/10 17:21:01;;;;;;;;;152.50;126.00;;;;;-0.36;100.00;100169.84;5897274;29;97320;-55
2024/01/10 17:24:05;;;;;;;;;151.40;122.20;;;;;-0.36;100.00;100165.38;5898617;29;96665;-55
2024/01/10 17:27:08;;;;;;;;;145.00;121.40;;;;;-0.41;100.00;100170.22;5898300;29;96522;-54
2024/01/10 17:30:12;;;;;;;;;141.40;122.60;;;;;-0.47;100.00;100168.03;5904504;29;96591;-54
2024/01/10 17:33:21;;;;;;;;;134.80;116.80;;;;;-0.59;100.00;100159.25;5917261;29;96826;-55
2024/01/10 17:36:24;;;;;;;;;134.25;110.50;;;;;-0.49;100.00;100173.44;5920191;29;96651;-54
2024/01/10 17:39:27;;;;;;;;;129.40;115.20;;;;;-0.50;100.00;100160.34;5895218;29;96750;-54
2024/01/10 17:42:30;;;;;;;;;126.20;108.20;;;;;-0.51;100.00;100161.28;5904286;29;96349;-54
2024/01/10 17:45:34;;;;;;;;;134.20;111.00;;;;;-0.53;100.00;100157.91;5907972;29;96377;-55
2024/01/10 17:48:38;;;;;;;;;124.50;106.25;;;;;-0.58;100.00;100155.63;5907606;29;96597;-54
2024/01/10 17:51:42;;;;;;;;;126.00;108.60;;;;;-0.75;100.00;100131.44;5907999;29;96801;-56
2024/01/10 17:54:46;;;;;;;;;128.00;103.75;;;;;-0.65;100.00;100153.59;5905470;29;96644;-56
2024/01/10 17:57:49;;;;;;;;;121.33;106.00;;;;;-0.69;100.00;100139.75;5905188;29;96706;-56
2024/01/10 18:00:53;;;;;;;;;118.60;103.00;;;;;-0.71;100.00;100124.94;5901074;29;96457;-56
2024/01/10 18:03:57;;;;;;;;;123.50;104.25;;;;;-0.76;100.00;100117.34;5898190;29;96595;-56
2024/01/10 18:07:15;;;;;;;;;125.00;105.00;;;;;-0.67;100.00;100126.38;5880228;29;98788;-56
2024/01/10 18:10:18;;;;;;;;;128.25;113.25;;;;;-0.67;100.00;100116.63;5909116;29;96610;-56
2024/01/10 18:13:21;;;;;;;;;135.00;113.50;;;;;-0.65;100.00;100119.16;5887077;29;97766;-56
2024/01/10 18:16:24;;;;;;;;;135.00;113.00;;;;;-0.70;100.00;100118.66;5900913;29;96587;-56
2024/01/10 18:19:29;;;;;;;;;141.00;119.00;;;;;-0.70;100.00;100113.38;5906293;29;96402;-56
2024/01/10 18:22:32;;;;;;;;;137.80;114.00;;;;;-0.69;100.00;100110.63;5897903;29;96907;-56
2024/01/10 18:25:37;;;;;;;;;131.40;111.20;;;;;-0.67;100.00;100111.31;5900011;29;96461;-56
2024/01/10 18:28:44;;;;;;;;;131.00;113.00;;;;;-0.67;100.00;100105.19;5899687;29;96869;-56
2024/01/10 18:31:53;;;;;;;;;128.00;110.20;;;;;-0.70;100.00;100108.09;5891094;29;96579;-56